Dongsheng, China
Current Conditions -  °F | °C
As of 7:00 PM on Wednesday 26 Nov 2014 (Local Time) from ZBHH Reporting Station
Scattered Clouds Scattered Clouds  
Wind Chill: 26°   Ceiling: Unl
Heat Index: 32°   Visibility: 6mi
Dew Point: 12°   Wind: 7mph
Humidity: 44%   Direction: 10°N
Pressure: 30.03"   Gusts: NA
Location:  39.81°N, 109.99°E
Report Text: ZBHH 261100Z 01003MPS 9999 SCT040 M00/M11 Q1017 NOSIG
Loading
Personal Weather Stations






























Interactive Weather Map New forecast layout! Learn more

10-Day Weather Forecast

Advertisements
Track Severe Weather on mobile